Time;durP1;ratioP1;P1;durP2;ratioP2;P2;SDS_P1;SDS_P2;PMS_P1;PMS_P2;Temp;Humidity;BMP_temperature;BMP_pressure;BME280_temperature;BME280_humidity;BME280_pressure;Samples;Min_cycle;Max_cycle;Signal;HPM_P1;HPM_P2
2021/06/26 00:00:09;;;;;;;32.58;11.70;;;;;;;22.35;74.25;96339.69;5114873;28;20058;-60
2021/06/26 00:02:35;;;;;;;19.23;11.02;;;;;;;22.29;74.36;96341.09;5114731;28;20026;-59
2021/06/26 00:05:01;;;;;;;20.48;13.18;;;;;;;22.30;74.71;96345.44;5114323;28;20106;-60
2021/06/26 00:07:26;;;;;;;22.60;12.07;;;;;;;22.29;74.63;96341.09;5114700;28;20020;-59
2021/06/26 00:09:52;;;;;;;23.83;13.05;;;;;;;22.36;74.85;96341.38;5114792;28;20027;-59
2021/06/26 00:12:18;;;;;;;24.65;10.60;;;;;;;22.35;74.13;96353.00;5114572;28;20023;-59
2021/06/26 00:14:45;;;;;;;14.70;11.15;;;;;;;22.33;74.06;96355.81;5113796;28;20034;-59
2021/06/26 00:17:11;;;;;;;27.90;12.70;;;;;;;22.37;74.47;96363.53;5114239;28;20445;-59
2021/06/26 00:19:37;;;;;;;18.80;12.35;;;;;;;22.40;74.69;96366.78;5114639;28;20102;-60
2021/06/26 00:22:02;;;;;;;19.77;13.25;;;;;;;22.43;74.86;96377.13;5114371;28;20142;-59
2021/06/26 00:24:28;;;;;;;16.42;11.45;;;;;;;22.46;74.99;96392.03;5113784;28;20075;-59
2021/06/26 00:26:54;;;;;;;19.92;12.55;;;;;;;22.48;74.44;96392.72;5114295;28;20024;-60
2021/06/26 00:29:19;;;;;;;23.05;10.85;;;;;;;22.50;74.40;96384.56;5114370;28;20036;-59
2021/06/26 00:31:45;;;;;;;23.80;10.93;;;;;;;22.49;74.72;96381.09;5114177;28;20068;-59
2021/06/26 00:34:11;;;;;;;15.38;10.68;;;;;;;22.48;74.48;96376.72;5112683;28;20528;-60
2021/06/26 00:36:36;;;;;;;20.08;11.77;;;;;;;22.47;74.42;96375.91;5113599;28;20023;-59
2021/06/26 00:39:03;;;;;;;24.38;11.68;;;;;;;22.46;74.95;96379.53;5114045;28;20051;-59
2021/06/26 00:41:28;;;;;;;22.10;10.98;;;;;;;22.50;74.46;96361.44;5114124;28;20019;-60
2021/06/26 00:43:54;;;;;;;24.23;11.52;;;;;;;22.50;74.27;96363.25;5113683;28;20032;-59
2021/06/26 00:46:19;;;;;;;18.48;10.93;;;;;;;22.45;74.03;96353.88;5113638;28;20072;-59
2021/06/26 00:48:45;;;;;;;15.75;10.25;;;;;;;22.43;74.09;96347.00;5113849;28;20024;-60
2021/06/26 00:51:10;;;;;;;26.00;14.60;;;;;;;22.31;74.71;96348.94;5113886;28;20039;-60
2021/06/26 00:53:36;;;;;;;16.38;11.10;;;;;;;22.32;74.91;96348.81;5114038;28;20023;-60
2021/06/26 00:56:02;;;;;;;23.65;11.38;;;;;;;22.32;74.25;96337.28;5113276;28;20469;-59
2021/06/26 00:58:28;;;;;;;28.00;12.10;;;;;;;22.30;74.61;96331.25;5113896;28;20377;-59
2021/06/26 01:00:54;;;;;;;20.25;12.18;;;;;;;22.24;74.11;96331.81;5113808;28;20019;-59
2021/06/26 01:03:20;;;;;;;23.67;14.35;;;;;;;22.20;74.81;96328.59;5113715;28;20020;-59
2021/06/26 01:05:46;;;;;;;22.58;11.15;;;;;;;22.19;74.74;96333.06;5113504;28;20103;-59
2021/06/26 01:08:12;;;;;;;23.55;12.00;;;;;;;22.17;74.42;96336.84;5093327;28;20105;-59
2021/06/26 01:10:39;;;;;;;23.80;10.95;;;;;;;22.06;74.80;96341.28;5093320;28;20059;-59
2021/06/26 01:13:05;;;;;;;33.95;14.70;;;;;;;21.94;75.88;96348.53;5093173;28;20024;-58
2021/06/26 01:15:31;;;;;;;25.75;13.25;;;;;;;21.76;76.90;96340.34;5093087;28;20393;-59
2021/06/26 01:17:57;;;;;;;18.75;12.00;;;;;;;21.80;76.63;96336.47;5111254;28;20373;-59
2021/06/26 01:20:24;;;;;;;27.63;15.40;;;;;;;21.81;76.14;96326.63;5113600;28;20020;-59
2021/06/26 01:22:59;;;;;;;19.33;11.13;;;;;;;21.83;76.08;96324.69;5113504;28;20027;-59
2021/06/26 01:25:26;;;;;;;13.85;10.73;;;;;;;21.90;75.40;96320.50;5113225;28;20374;-59
2021/06/26 01:27:53;;;;;;;19.08;10.95;;;;;;;21.91;75.18;96308.88;5112547;28;20035;-59
2021/06/26 01:30:34;;;;;;;26.17;12.10;;;;;;;21.87;75.03;96315.47;5113432;28;20047;-59
2021/06/26 01:33:01;;;;;;;15.52;12.98;;;;;;;21.83;75.22;96308.72;5113569;28;20069;-59
2021/06/26 01:35:28;;;;;;;18.15;11.50;;;;;;;21.77;75.66;96317.25;5113362;28;20028;-59
2021/06/26 01:37:54;;;;;;;20.45;12.23;;;;;;;21.69;75.44;96313.41;5112828;28;20047;-59
2021/06/26 01:40:25;;;;;;;24.23;13.40;;;;;;;21.55;76.43;96313.78;5113328;28;20024;-59
2021/06/26 01:42:53;;;;;;;23.98;13.07;;;;;;;21.56;75.94;96310.13;5113308;28;20023;-60
2021/06/26 01:45:20;;;;;;;26.50;12.32;;;;;;;21.56;75.87;96304.81;5113259;28;20020;-59
2021/06/26 01:47:55;;;;;;;22.13;14.05;;;;;;;21.55;76.03;96308.44;5112998;28;20081;-59
2021/06/26 01:50:23;;;;;;;24.80;13.32;;;;;;;21.57;76.58;96301.16;5113403;28;20028;-59
2021/06/26 01:52:49;;;;;;;18.80;13.95;;;;;;;21.59;76.57;96293.91;5113210;28;20531;-59
2021/06/26 01:55:16;;;;;;;21.38;14.73;;;;;;;21.57;76.73;96290.50;5113017;28;20016;-59
2021/06/26 01:57:44;;;;;;;25.42;17.88;;;;;;;21.59;78.03;96292.06;5116576;28;20179;-59
2021/06/26 02:00:10;;;;;;;23.50;11.85;;;;;;;21.65;76.84;96285.38;5117146;28;20051;-59
2021/06/26 02:02:36;;;;;;;20.80;12.35;;;;;;;21.62;76.35;96280.31;5117470;28;20379;-59
2021/06/26 02:05:04;;;;;;;20.15;12.68;;;;;;;21.56;77.03;96284.38;5117177;28;20098;-59
2021/06/26 02:07:30;;;;;;;24.02;13.57;;;;;;;21.49;77.11;96285.03;5117078;28;20028;-59
2021/06/26 02:09:55;;;;;;;27.33;15.60;;;;;;;21.47;77.85;96285.16;5116822;28;20114;-59
2021/06/26 02:12:21;;;;;;;26.27;16.65;;;;;;;21.52;77.52;96282.94;5116804;28;20020;-59
2021/06/26 02:14:46;;;;;;;20.05;11.77;;;;;;;21.56;76.58;96280.84;5116762;28;20032;-59
2021/06/26 02:17:12;;;;;;;27.25;15.43;;;;;;;21.52;78.13;96274.13;5116867;28;20023;-59
2021/06/26 02:19:37;;;;;;;18.95;11.00;;;;;;;21.52;76.78;96266.97;5115139;28;20106;-59
2021/06/26 02:22:03;;;;;;;22.63;14.50;;;;;;;21.45;76.53;96261.34;5116628;28;20054;-59
2021/06/26 02:24:29;;;;;;;19.40;12.90;;;;;;;21.47;77.81;96271.84;5116466;28;20036;-59
2021/06/26 02:26:54;;;;;;;18.70;11.05;;;;;;;21.51;76.05;96272.41;5116606;28;20032;-59
2021/06/26 02:29:20;;;;;;;21.92;12.00;;;;;;;21.48;76.45;96275.34;5116182;28;20473;-59
2021/06/26 02:31:46;;;;;;;26.33;14.05;;;;;;;21.52;77.93;96284.75;5116699;28;20077;-59
2021/06/26 02:34:14;;;;;;;18.50;13.18;;;;;;;21.54;77.64;96283.66;5116524;28;20069;-59
2021/06/26 02:36:40;;;;;;;25.08;14.48;;;;;;;21.53;77.75;96281.97;5116407;28;20448;-59
2021/06/26 02:39:05;;;;;;;25.75;14.23;;;;;;;21.59;77.45;96285.91;5116225;28;20036;-59
2021/06/26 02:41:31;;;;;;;25.98;14.80;;;;;;;21.66;77.08;96283.53;5116410;28;20492;-59
2021/06/26 02:43:56;;;;;;;16.17;11.65;;;;;;;21.66;76.70;96297.69;5116439;28;20024;-59
2021/06/26 02:46:22;;;;;;;19.00;12.25;;;;;;;21.70;76.46;96304.44;5116173;28;20074;-59
2021/06/26 02:48:48;;;;;;;23.85;12.57;;;;;;;21.68;76.77;96308.22;5115822;28;20528;-59
2021/06/26 02:51:13;;;;;;;20.63;12.70;;;;;;;21.71;76.53;96319.41;5116392;28;20427;-59
2021/06/26 02:53:39;;;;;;;18.23;11.10;;;;;;;21.70;75.72;96323.06;5116111;28;20035;-59
2021/06/26 02:56:05;;;;;;;17.88;11.25;;;;;;;21.73;75.48;96327.25;5116237;28;20020;-59
2021/06/26 02:58:31;;;;;;;19.95;12.52;;;;;;;21.71;75.79;96327.41;5115631;28;20039;-59
2021/06/26 03:00:56;;;;;;;15.50;12.02;;;;;;;21.76;75.44;96328.88;5115880;28;20034;-59
2021/06/26 03:03:22;;;;;;;24.98;14.18;;;;;;;21.69;75.74;96321.38;5116015;28;20027;-59
2021/06/26 03:05:48;;;;;;;23.80;11.80;;;;;;;21.69;76.28;96316.06;5115934;27;20055;-59
2021/06/26 03:08:13;;;;;;;17.65;11.88;;;;;;;21.70;75.46;96320.41;5115574;28;20507;-59
2021/06/26 03:10:39;;;;;;;33.28;12.05;;;;;;;21.62;75.98;96306.94;5115469;28;20377;-59
2021/06/26 03:13:05;;;;;;;19.77;12.50;;;;;;;21.58;76.32;96303.69;5115859;28;20023;-59
2021/06/26 03:15:32;;;;;;;20.00;11.30;;;;;;;21.58;76.32;96302.84;5115489;28;20358;-59
2021/06/26 03:17:57;;;;;;;16.98;11.10;;;;;;;21.61;75.68;96293.75;5115591;28;20030;-59
2021/06/26 03:20:23;;;;;;;20.55;11.27;;;;;;;21.64;75.75;96299.63;5115155;27;20110;-59
2021/06/26 03:22:48;;;;;;;27.90;15.07;;;;;;;21.64;75.66;96291.66;5115399;28;20023;-59
2021/06/26 03:25:14;;;;;;;16.05;11.88;;;;;;;21.64;76.40;96296.16;5115166;28;20047;-59
2021/06/26 03:27:41;;;;;;;20.70;11.57;;;;;;;21.69;76.53;96291.25;5115469;28;20015;-59
2021/06/26 03:30:08;;;;;;;15.35;11.15;;;;;;;21.71;75.87;96289.31;5115049;28;20103;-59
2021/06/26 03:32:34;;;;;;;19.33;10.98;;;;;;;21.73;75.55;96287.34;5115185;28;20039;-59
2021/06/26 03:35:00;;;;;;;17.83;11.30;;;;;;;21.73;75.40;96294.50;5114952;28;20031;-59
2021/06/26 03:37:26;;;;;;;22.50;10.55;;;;;;;21.73;74.77;96284.69;5115338;28;20389;-59
2021/06/26 03:39:51;;;;;;;22.02;10.57;;;;;;;21.84;75.10;96289.97;5115238;28;20026;-59
2021/06/26 03:42:17;;;;;;;18.27;10.65;;;;;;;21.91;74.75;96300.06;5114817;28;20465;-59
2021/06/26 03:44:43;;;;;;;17.25;12.00;;;;;;;21.81;75.37;96313.31;5115097;28;20031;-59
2021/06/26 03:47:08;;;;;;;24.35;11.93;;;;;;;21.85;76.15;96320.06;5115185;28;20036;-59
2021/06/26 03:49:37;;;;;;;17.58;13.20;;;;;;;21.84;76.74;96319.25;5115036;28;20354;-59
2021/06/26 03:52:04;;;;;;;19.75;11.65;;;;;;;21.86;76.87;96319.09;5114492;28;20028;-59
2021/06/26 03:54:29;;;;;;;20.02;11.65;;;;;;;22.04;76.42;96319.31;5114638;27;20020;-59
2021/06/26 03:56:55;;;;;;;18.95;11.50;;;;;;;22.25;76.03;96334.34;5114998;28;20028;-59
2021/06/26 03:59:21;;;;;;;14.30;8.93;;;;;;;22.52;75.60;96338.19;5114860;28;20536;-59
2021/06/26 04:01:47;;;;;;;11.43;8.05;;;;;;;22.71;74.63;96340.06;5114392;28;20034;-59
2021/06/26 04:04:12;;;;;;;10.63;8.57;;;;;;;22.97;73.51;96350.13;5114755;28;20077;-59
2021/06/26 04:06:39;;;;;;;11.48;8.00;;;;;;;23.16;73.30;96348.44;5114752;28;20069;-59
2021/06/26 04:09:05;;;;;;;19.88;9.43;;;;;;;23.34;73.58;96339.72;5114567;28;20031;-59
2021/06/26 04:11:30;;;;;;;19.15;9.48;;;;;;;23.52;72.78;96333.66;5114657;28;20028;-59
2021/06/26 04:13:56;;;;;;;24.25;9.95;;;;;;;23.62;71.98;96331.78;5113811;28;20040;-59
2021/06/26 04:16:22;;;;;;;19.05;10.88;;;;;;;23.61;72.44;96330.13;5114524;28;20061;-59
2021/06/26 04:18:47;;;;;;;16.70;8.75;;;;;;;23.87;72.22;96329.44;5113837;28;20020;-59
2021/06/26 04:21:13;;;;;;;16.80;8.82;;;;;;;24.12;71.78;96327.09;5114417;28;20465;-59
2021/06/26 04:23:38;;;;;;;17.83;8.77;;;;;;;24.39;71.04;96328.09;5113796;28;20024;-59
2021/06/26 04:26:04;;;;;;;20.23;8.55;;;;;;;24.56;70.64;96326.41;5114116;28;20496;-60
2021/06/26 04:28:29;;;;;;;16.42;8.60;;;;;;;24.71;71.09;96339.28;5114146;28;20024;-60
2021/06/26 04:30:55;;;;;;;17.08;7.68;;;;;;;24.73;70.28;96353.31;5114232;28;20028;-60
2021/06/26 04:33:21;;;;;;;12.65;7.78;;;;;;;24.67;69.87;96359.25;5113776;28;20028;-60
2021/06/26 04:35:46;;;;;;;21.85;8.82;;;;;;;24.65;70.07;96372.78;5114218;28;20057;-59
2021/06/26 04:38:12;;;;;;;14.05;8.10;;;;;;;24.45;70.08;96366.72;5114039;28;20043;-59
2021/06/26 04:40:37;;;;;;;18.58;8.90;;;;;;;24.37;70.54;96364.81;5113966;28;20461;-60
2021/06/26 04:43:04;;;;;;;24.88;9.30;;;;;;;24.38;71.70;96363.81;5113685;28;20057;-59
2021/06/26 04:45:30;;;;;;;17.75;10.43;;;;;;;24.30;71.58;96367.25;5113983;28;20038;-60
2021/06/26 04:48:00;;;;;;;25.80;10.23;;;;;;;24.26;72.23;96386.41;5113944;28;20019;-60
2021/06/26 04:50:26;;;;;;;15.27;9.63;;;;;;;24.19;72.64;96394.16;5113924;28;20481;-59
2021/06/26 04:52:51;;;;;;;12.77;9.23;;;;;;;24.13;72.62;96390.25;5113319;28;20028;-59
2021/06/26 04:55:17;;;;;;;11.38;8.40;;;;;;;24.03;72.89;96386.75;5113520;28;20031;-60
2021/06/26 04:57:44;;;;;;;14.13;9.02;;;;;;;23.90;72.51;96385.22;5113370;28;20069;-59
2021/06/26 05:00:12;;;;;;;17.83;9.75;;;;;;;23.76;73.16;96397.25;5113744;28;20032;-60
2021/06/26 05:02:37;;;;;;;20.73;12.85;;;;;;;23.71;73.16;96412.84;5113655;28;20027;-60
2021/06/26 05:05:04;;;;;;;20.40;11.05;;;;;;;23.67;73.57;96414.13;5113381;28;20024;-59
2021/06/26 05:07:30;;;;;;;25.65;11.98;;;;;;;23.52;74.48;96448.41;5113685;28;20503;-60
2021/06/26 05:09:55;;;;;;;25.48;9.52;;;;;;;23.17;70.73;96485.31;5113624;28;20027;-60
2021/06/26 05:12:21;;;;;;;20.10;5.72;;;;;;;22.41;63.07;96363.13;5113684;28;20024;-61
2021/06/26 05:25:24;;;;;;;25.42;7.70;;;;;;;21.78;69.96;96321.56;5131591;27;20414;-60
2021/06/26 05:27:49;;;;;;;20.55;6.68;;;;;;;21.46;71.71;96329.53;5131394;27;20034;-66
2021/06/26 05:30:15;;;;;;;22.67;8.63;;;;;;;21.37;72.66;96359.56;5130970;27;20016;-63
2021/06/26 05:32:41;;;;;;;29.52;7.57;;;;;;;21.29;72.95;96380.66;5130812;28;20024;-66
2021/06/26 05:35:08;;;;;;;24.63;8.50;;;;;;;21.10;72.81;96395.50;5131250;28;20015;-64
2021/06/26 05:37:34;;;;;;;20.30;7.30;;;;;;;20.73;73.81;96401.16;5134939;27;20019;-66
2021/06/26 05:40:00;;;;;;;19.95;6.10;;;;;;;20.49;75.71;96376.47;5143551;27;20026;-63
2021/06/26 05:42:25;;;;;;;16.88;6.43;;;;;;;20.61;75.53;96360.50;5148938;27;20023;-61
2021/06/26 05:44:51;;;;;;;25.50;7.90;;;;;;;20.63;75.43;96366.53;5137976;27;20027;-63
2021/06/26 05:47:16;;;;;;;18.88;8.68;;;;;;;20.69;76.05;96384.66;5135672;27;20054;-64
2021/06/26 05:49:42;;;;;;;27.95;8.75;;;;;;;20.69;76.83;96419.19;5129944;28;20017;-60
2021/06/26 05:52:08;;;;;;;29.85;15.85;;;;;;;20.63;80.65;96436.47;5130355;27;20020;-63
2021/06/26 05:54:34;;;;;;;37.00;15.60;;;;;;;20.54;81.41;96445.19;5130509;27;20119;-62
2021/06/26 05:57:01;;;;;;;29.13;21.02;;;;;;;20.54;83.19;96464.63;5127521;27;20793;-63
2021/06/26 05:59:27;;;;;;;39.70;24.40;;;;;;;20.55;84.40;96465.47;5129336;27;20031;-60
2021/06/26 06:01:53;;;;;;;37.13;20.80;;;;;;;20.58;84.41;96463.41;5126004;27;20031;-62
2021/06/26 06:04:19;;;;;;;38.00;20.40;;;;;;;20.74;83.53;96466.66;5130598;27;20465;-60
2021/06/26 06:06:44;;;;;;;24.45;13.15;;;;;;;20.77;82.49;96472.53;5130129;27;20439;-60
2021/06/26 06:09:10;;;;;;;27.10;12.98;;;;;;;20.81;81.96;96489.09;5130502;27;20060;-60
2021/06/26 06:11:36;;;;;;;17.48;9.80;;;;;;;20.82;81.77;96485.47;5129827;28;20103;-60
2021/06/26 06:14:02;;;;;;;15.35;8.10;;;;;;;20.80;80.04;96479.44;5130022;27;20045;-63
2021/06/26 06:16:28;;;;;;;15.55;6.50;;;;;;;20.78;79.66;96476.06;5130271;28;20026;-60
2021/06/26 06:18:54;;;;;;;12.23;6.35;;;;;;;20.69;80.15;96459.91;5130178;28;20024;-62
2021/06/26 06:21:20;;;;;;;10.10;4.78;;;;;;;20.62;79.36;96456.03;5130361;27;20019;-63
2021/06/26 06:23:46;;;;;;;10.73;4.78;;;;;;;20.52;79.36;96469.22;5130083;27;20044;-62
2021/06/26 06:26:11;;;;;;;7.35;4.15;;;;;;;20.52;79.26;96473.66;5117324;27;20023;-62
2021/06/26 06:28:37;;;;;;;14.18;5.30;;;;;;;20.43;79.66;96476.09;5116385;28;20499;-60
2021/06/26 06:31:03;;;;;;;9.43;4.32;;;;;;;20.33;79.93;96469.84;5116227;28;20023;-62
2021/06/26 06:33:29;;;;;;;10.10;4.55;;;;;;;20.36;80.56;96480.22;5115568;28;20065;-61
2021/06/26 06:35:54;;;;;;;8.73;4.10;;;;;;;20.39;80.08;96477.31;5116228;28;20016;-60
2021/06/26 06:38:20;;;;;;;10.63;4.80;;;;;;;20.44;80.34;96479.63;5116177;28;20020;-63
2021/06/26 06:40:46;;;;;;;13.13;4.85;;;;;;;20.53;80.17;96502.78;5114508;28;20023;-62
2021/06/26 06:43:11;;;;;;;11.88;4.60;;;;;;;20.57;79.85;96506.91;5115960;28;20032;-61
2021/06/26 06:45:38;;;;;;;7.47;4.20;;;;;;;20.60;79.87;96503.16;5116183;28;20129;-63
2021/06/26 06:48:04;;;;;;;24.52;5.53;;;;;;;20.67;79.94;96498.16;5116205;28;20020;-63
2021/06/26 06:50:30;;;;;;;9.35;5.00;;;;;;;20.79;79.36;96483.06;5116020;28;20073;-62
2021/06/26 06:52:59;;;;;;;11.13;6.03;;;;;;;20.81;79.53;96476.66;5116110;28;20023;-63
2021/06/26 06:55:25;;;;;;;14.68;5.78;;;;;;;20.91;79.54;96476.78;5115303;28;20027;-63
2021/06/26 06:57:50;;;;;;;15.57;4.38;;;;;;;21.01;78.73;96492.00;5114193;28;20034;-61
2021/06/26 07:00:17;;;;;;;8.85;4.85;;;;;;;21.06;79.39;96495.97;5114433;28;20113;-62
2021/06/26 07:02:42;;;;;;;13.00;5.22;;;;;;;21.07;79.53;96515.44;5115639;28;20034;-63
2021/06/26 07:05:09;;;;;;;10.43;4.97;;;;;;;21.15;79.62;96528.94;5114189;28;20028;-60
2021/06/26 07:07:35;;;;;;;12.00;5.43;;;;;;;21.23;79.80;96528.31;5115526;28;20077;-63
2021/06/26 07:10:01;;;;;;;11.38;5.47;;;;;;;21.35;79.64;96526.44;5114591;28;20027;-62
2021/06/26 07:12:27;;;;;;;12.40;4.60;;;;;;;21.45;78.46;96521.22;5115647;28;20024;-63
2021/06/26 07:14:52;;;;;;;13.38;4.32;;;;;;;21.38;75.52;96507.59;5114675;28;20031;-61
2021/06/26 07:17:19;;;;;;;11.48;5.30;;;;;;;21.37;77.28;96513.84;5113874;28;20077;-61
2021/06/26 07:19:44;;;;;;;12.35;5.50;;;;;;;21.43;77.37;96502.72;5114885;28;20031;-62
2021/06/26 07:22:10;;;;;;;8.23;5.25;;;;;;;21.39;76.15;96497.78;5115019;27;20024;-63
2021/06/26 07:24:36;;;;;;;9.18;5.63;;;;;;;21.33;76.59;96488.47;5114575;28;20067;-61
2021/06/26 07:27:02;;;;;;;12.32;6.78;;;;;;;21.30;77.79;96496.72;5114652;28;20031;-62
2021/06/26 07:29:27;;;;;;;11.25;7.07;;;;;;;21.21;77.11;96487.69;5115215;28;20028;-62
2021/06/26 07:31:53;;;;;;;11.52;6.63;;;;;;;21.25;77.48;96486.47;5115138;28;20019;-60
2021/06/26 07:34:18;;;;;;;17.75;7.43;;;;;;;21.31;77.99;96480.63;5114685;28;20035;-61
2021/06/26 07:36:44;;;;;;;14.45;8.93;;;;;;;21.44;78.50;96482.28;5114024;28;20032;-62
2021/06/26 07:39:10;;;;;;;12.30;7.75;;;;;;;21.58;78.25;96494.41;5115035;28;20020;-61
2021/06/26 07:41:36;;;;;;;10.50;6.75;;;;;;;21.71;77.64;96499.56;5113706;28;20028;-64
2021/06/26 07:44:02;;;;;;;14.93;7.47;;;;;;;21.87;77.04;96496.47;5113274;28;20046;-62
2021/06/26 07:46:28;;;;;;;12.73;7.40;;;;;;;22.01;77.25;96503.28;5113062;28;20613;-63
2021/06/26 07:48:53;;;;;;;15.98;5.95;;;;;;;22.16;76.94;96511.78;5113540;28;20118;-63
2021/06/26 07:51:19;;;;;;;10.60;4.18;;;;;;;22.17;72.10;96520.59;5113768;28;20098;-64
2021/06/26 07:53:45;;;;;;;9.63;3.35;;;;;;;22.06;69.52;96518.84;5113164;28;20030;-62
2021/06/26 07:56:11;;;;;;;6.57;4.03;;;;;;;21.86;71.52;96521.41;5114560;28;20092;-62
2021/06/26 07:58:37;;;;;;;6.90;4.22;;;;;;;21.65;73.26;96527.53;5114870;28;20051;-63
2021/06/26 08:01:03;;;;;;;10.98;5.18;;;;;;;21.77;73.63;96532.84;5114758;28;20477;-60
2021/06/26 08:03:29;;;;;;;12.52;4.75;;;;;;;21.92;71.00;96525.38;5114278;28;20070;-61
2021/06/26 08:05:56;;;;;;;15.15;4.28;;;;;;;22.25;74.03;96527.94;5113275;28;20507;-64
2021/06/26 08:08:22;;;;;;;9.93;5.13;;;;;;;22.62;73.23;96527.44;5114552;28;20099;-64
2021/06/26 08:10:49;;;;;;;11.77;4.25;;;;;;;23.03;68.22;96515.91;5114620;28;20035;-61
2021/06/26 08:13:15;;;;;;;6.05;4.03;;;;;;;23.59;70.68;96508.25;5113801;28;20038;-63
2021/06/26 08:15:42;;;;;;;6.20;3.65;;;;;;;23.99;69.38;96511.75;5113889;28;20019;-61
2021/06/26 08:18:09;;;;;;;9.25;4.00;;;;;;;24.51;68.33;96523.00;5120416;27;20062;-64
2021/06/26 08:20:35;;;;;;;11.35;3.75;;;;;;;24.85;65.68;96515.25;5126210;27;20024;-62
2021/06/26 08:23:02;;;;;;;7.90;3.22;;;;;;;25.36;65.72;96511.28;5124504;27;20030;-65
2021/06/26 08:25:28;;;;;;;6.10;2.50;;;;;;;25.88;62.59;96512.41;5125393;27;20055;-62
2021/06/26 08:27:54;;;;;;;5.63;2.60;;;;;;;26.38;61.37;96512.78;5122319;27;20481;-64
2021/06/26 08:30:20;;;;;;;8.25;3.33;;;;;;;26.96;61.11;96518.38;5128739;27;20026;-61
2021/06/26 08:32:46;;;;;;;7.53;2.75;;;;;;;27.33;59.50;96520.88;5126962;27;20098;-63
2021/06/26 08:35:12;;;;;;;10.25;3.03;;;;;;;27.79;59.19;96509.69;5113425;28;20106;-63
2021/06/26 08:37:45;;;;;;;8.70;2.80;;;;;;;28.11;57.88;96504.44;5113991;28;20019;-61
2021/06/26 08:40:13;;;;;;;6.28;2.72;;;;;;;28.35;56.78;96498.19;5114015;28;20023;-62
2021/06/26 08:42:39;;;;;;;5.78;2.53;;;;;;;28.68;56.98;96502.63;5113583;28;20031;-64
2021/06/26 08:45:08;;;;;;;12.45;2.80;;;;;;;28.94;58.35;96501.53;5113796;28;20106;-62
2021/06/26 08:47:34;;;;;;;6.65;2.35;;;;;;;28.98;55.67;96499.31;5113693;28;20036;-64
2021/06/26 08:50:00;;;;;;;9.20;2.60;;;;;;;28.85;55.39;96502.56;5113867;28;20051;-65
2021/06/26 08:52:27;;;;;;;6.45;2.60;;;;;;;28.91;55.11;96485.72;5112689;28;20035;-64
2021/06/26 08:54:54;;;;;;;7.85;2.15;;;;;;;29.26;53.52;96498.84;5113221;28;20028;-62
2021/06/26 08:57:31;;;;;;;11.88;2.65;;;;;;;29.49;56.07;96487.22;5115444;28;20050;-65
2021/06/26 08:59:59;;;;;;;6.70;2.30;;;;;;;29.67;54.71;96480.72;5115510;27;20028;-61
2021/06/26 09:02:27;;;;;;;9.38;3.15;;;;;;;29.75;54.47;96478.81;5113002;28;20029;-63
2021/06/26 09:04:54;;;;;;;10.18;2.33;;;;;;;29.85;52.60;96478.53;5113489;28;20077;-64
2021/06/26 09:07:34;;;;;;;8.32;2.80;;;;;;;30.01;52.50;96480.22;5113681;28;20145;-64
2021/06/26 09:10:17;;;;;;;4.95;2.45;;;;;;;30.08;48.65;96468.72;5113706;28;20031;-62
2021/06/26 09:12:45;;;;;;;8.63;2.38;;;;;;;30.02;48.38;96470.28;5113377;28;20040;-63
2021/06/26 09:15:21;;;;;;;7.90;2.03;;;;;;;29.81;45.56;96462.91;5113482;28;20449;-64
2021/06/26 09:17:47;;;;;;;9.07;2.70;;;;;;;29.61;45.83;96460.72;5113591;28;20028;-63
2021/06/26 09:20:14;;;;;;;7.68;2.40;;;;;;;29.88;46.41;96463.84;5113644;28;20046;-64
2021/06/26 09:22:46;;;;;;;4.78;2.42;;;;;;;30.15;46.86;96456.16;5113080;28;20028;-61
2021/06/26 09:25:23;;;;;;;4.60;2.17;;;;;;;30.10;46.65;96455.91;5113385;28;20047;-62
2021/06/26 09:27:49;;;;;;;11.75;2.60;;;;;;;30.28;47.26;96463.66;5112912;28;20376;-61
2021/06/26 09:30:15;;;;;;;12.35;2.63;;;;;;;30.47;49.32;96466.81;5112525;28;20024;-60
2021/06/26 09:32:44;;;;;;;11.35;2.10;;;;;;;30.62;47.84;96469.50;5117004;28;20061;-64
2021/06/26 09:35:16;;;;;;;5.63;2.03;;;;;;;30.77;48.84;96466.81;5113038;28;20024;-62
2021/06/26 09:37:42;;;;;;;11.23;2.55;;;;;;;30.77;47.63;96467.66;5117635;28;20493;-62
2021/06/26 09:40:11;;;;;;;13.85;3.00;;;;;;;30.73;48.79;96460.91;5122895;28;20028;-62
2021/06/26 09:42:37;;;;;;;9.30;2.40;;;;;;;30.63;46.96;96458.53;5131977;27;20027;-64
2021/06/26 09:45:07;;;;;;;9.05;2.20;;;;;;;30.60;46.61;96456.19;5117968;28;20044;-61
2021/06/26 09:47:33;;;;;;;;;;;;;;;30.71;49.24;96465.69;5114507;28;20114;-65
2021/06/26 09:50:24;;;;;;;9.77;2.50;;;;;;;30.53;48.80;96471.47;5118241;28;20011;-60
2021/06/26 09:52:57;;;;;;;9.43;2.50;;;;;;;30.67;49.95;96463.53;5133474;27;20369;-63
2021/06/26 09:55:27;;;;;;;5.13;1.88;;;;;;;30.79;47.68;96466.63;5132984;27;20087;-62
2021/06/26 09:57:57;;;;;;;7.38;2.38;;;;;;;30.77;48.09;96464.97;5113326;27;20027;-63
2021/06/26 10:00:25;;;;;;;7.90;2.58;;;;;;;30.66;45.86;96464.56;5113760;28;20042;-63
2021/06/26 10:02:52;;;;;;;9.60;2.92;;;;;;;30.68;48.28;96471.44;5116178;28;20093;-64
2021/06/26 10:05:18;;;;;;;8.15;2.50;;;;;;;30.74;47.92;96469.84;5116291;28;20422;-63
2021/06/26 10:07:48;;;;;;;9.45;2.42;;;;;;;30.82;43.32;96458.16;5115707;28;20067;-64
2021/06/26 10:10:15;;;;;;;8.75;2.47;;;;;;;30.87;45.47;96453.00;5116903;28;20023;-65
2021/06/26 10:12:42;;;;;;;6.32;2.15;;;;;;;30.91;44.48;96446.19;5116816;28;20028;-62
2021/06/26 10:15:10;;;;;;;7.88;1.98;;;;;;;30.88;43.21;96443.91;5116795;28;20081;-65
2021/06/26 10:17:37;;;;;;;7.68;1.95;;;;;;;30.93;44.13;96443.31;5116457;28;20028;-64
2021/06/26 10:20:05;;;;;;;13.70;2.70;;;;;;;30.69;39.88;96442.59;5116694;28;20027;-63
2021/06/26 10:22:36;;;;;;;13.77;2.00;;;;;;;30.68;42.61;96435.53;5116635;28;20024;-65
2021/06/26 10:25:02;;;;;;;5.93;2.13;;;;;;;30.81;43.09;96438.41;5116501;28;20405;-62
2021/06/26 10:27:27;;;;;;;7.68;2.13;;;;;;;30.65;40.45;96434.03;5116155;28;20028;-63
2021/06/26 10:29:53;;;;;;;6.55;1.80;;;;;;;30.60;43.48;96423.81;5116258;28;20023;-64
2021/06/26 10:32:19;;;;;;;9.60;1.88;;;;;;;30.61;46.40;96425.47;5116626;28;20038;-64
2021/06/26 10:34:47;;;;;;;7.72;2.00;;;;;;;30.67;45.17;96420.38;5127508;27;20042;-65
2021/06/26 10:37:21;;;;;;;8.25;2.30;;;;;;;30.79;44.09;96418.03;5130560;27;20038;-63
2021/06/26 10:39:49;;;;;;;5.72;2.15;;;;;;;30.87;44.53;96413.38;5120790;27;20015;-65
2021/06/26 10:42:19;;;;;;;7.65;1.95;;;;;;;30.96;45.52;96408.69;5121236;27;20020;-63
2021/06/26 10:44:49;;;;;;;9.85;2.08;;;;;;;30.97;45.47;96401.44;5128972;27;20038;-63
2021/06/26 10:47:35;;;;;;;3.58;1.90;;;;;;;31.04;44.79;96394.22;5124485;27;20051;-64
2021/06/26 10:50:15;;;;;;;7.70;2.30;;;;;;;30.93;45.80;96387.47;5130902;27;20441;-64
2021/06/26 10:52:48;;;;;;;7.68;2.13;;;;;;;30.88;49.57;96392.63;5115050;28;20539;-61
2021/06/26 10:55:26;;;;;;;6.63;2.22;;;;;;;30.78;45.82;96392.91;5116010;28;20123;-63
2021/06/26 10:57:52;;;;;;;8.15;2.05;;;;;;;30.85;48.00;96396.50;5115980;28;20028;-63
2021/06/26 11:00:18;;;;;;;4.63;2.42;;;;;;;31.00;47.71;96398.34;5115905;28;20045;-65
2021/06/26 11:02:45;;;;;;;7.57;2.05;;;;;;;31.12;49.93;96401.38;5115714;28;20023;-62
2021/06/26 11:05:12;;;;;;;7.78;2.15;;;;;;;31.21;47.79;96402.06;5115899;28;20027;-63
2021/06/26 11:07:39;;;;;;;5.00;2.25;;;;;;;31.08;45.94;96397.34;5115732;28;20015;-65
2021/06/26 11:10:11;;;;;;;10.40;2.30;;;;;;;30.96;45.52;96384.38;5115801;28;20070;-65
2021/06/26 11:12:45;;;;;;;10.63;2.67;;;;;;;30.84;46.63;96378.66;5115180;28;20035;-65
2021/06/26 11:15:12;;;;;;;7.25;2.03;;;;;;;30.91;46.68;96384.09;5115700;28;20035;-63
2021/06/26 11:17:41;;;;;;;5.97;2.22;;;;;;;30.97;44.81;96383.34;5115605;28;20047;-63
2021/06/26 11:20:15;;;;;;;8.40;2.08;;;;;;;30.96;46.08;96378.97;5115451;27;20020;-64
2021/06/26 11:23:01;;;;;;;7.40;1.98;;;;;;;30.82;45.03;96369.09;5115165;28;20049;-62
2021/06/26 11:25:28;;;;;;;9.07;2.63;;;;;;;30.73;47.55;96369.16;5115302;28;20054;-63
2021/06/26 11:28:05;;;;;;;9.25;2.42;;;;;;;30.92;46.14;96363.34;5115385;28;20107;-63
2021/06/26 11:30:32;;;;;;;4.88;1.90;;;;;;;31.01;47.29;96360.34;5115305;28;20023;-64
2021/06/26 11:32:58;;;;;;;4.13;1.80;;;;;;;31.02;46.89;96350.38;5114917;28;20034;-64